Time;durP1;ratioP1;P1;durP2;ratioP2;P2;SDS_P1;SDS_P2;PMS_P1;PMS_P2;Temp;Humidity;BMP_temperature;BMP_pressure;BME280_temperature;BME280_humidity;BME280_pressure;Samples;Min_cycle;Max_cycle;Signal;HPM_P1;HPM_P2
2022/09/12 00:01:14;;;;;;;3.38;1.70;;;17.60;99.90;;;;;;5115634;28;20032;-50
2022/09/12 00:03:40;;;;;;;2.15;1.27;;;17.60;99.90;;;;;;5115050;28;20081;-51
2022/09/12 00:06:10;;;;;;;3.10;1.20;;;17.60;99.90;;;;;;5079426;28;20138;-50
2022/09/12 00:08:36;;;;;;;2.40;1.27;;;17.60;99.90;;;;;;5115245;28;20027;-52
2022/09/12 00:11:08;;;;;;;2.05;1.30;;;17.60;99.90;;;;;;5115253;28;20459;-49
2022/09/12 00:13:35;;;;;;;1.42;1.33;;;17.60;99.90;;;;;;5114775;28;20079;-49
2022/09/12 00:16:00;;;;;;;3.42;1.35;;;17.60;99.90;;;;;;5114908;28;20425;-50
2022/09/12 00:18:26;;;;;;;2.47;1.30;;;17.70;99.90;;;;;;5115485;28;20088;-49
2022/09/12 00:20:52;;;;;;;4.13;1.30;;;17.60;99.90;;;;;;5114390;28;20370;-50
2022/09/12 00:23:18;;;;;;;1.75;1.15;;;17.70;99.90;;;;;;5114875;28;20471;-49
2022/09/12 00:25:46;;;;;;;2.00;1.08;;;17.60;99.90;;;;;;5114753;28;20024;-51
2022/09/12 00:28:13;;;;;;;2.13;1.40;;;17.60;99.90;;;;;;5115192;28;20016;-49
2022/09/12 00:30:44;;;;;;;5.07;1.00;;;17.60;99.90;;;;;;5114348;28;20088;-50
2022/09/12 00:33:10;;;;;;;2.72;1.10;;;17.70;99.90;;;;;;5114546;28;20440;-48
2022/09/12 00:35:48;;;;;;;1.25;1.00;;;17.70;99.90;;;;;;5114362;28;20499;-49
2022/09/12 00:38:16;;;;;;;2.78;1.02;;;17.60;99.90;;;;;;5111365;28;20478;-48
2022/09/12 00:40:43;;;;;;;2.80;1.60;;;17.60;99.90;;;;;;5114228;28;20080;-48
2022/09/12 00:43:29;;;;;;;1.25;1.08;;;17.60;99.90;;;;;;5113922;28;20146;-49
2022/09/12 00:45:57;;;;;;;1.70;1.15;;;17.50;99.90;;;;;;5025661;28;20046;-48
2022/09/12 00:48:32;;;;;;;3.10;1.20;;;17.50;99.90;;;;;;5013999;28;20436;-49
2022/09/12 00:50:59;;;;;;;3.05;0.95;;;17.50;99.90;;;;;;5019348;28;20038;-48
2022/09/12 00:53:25;;;;;;;2.50;1.13;;;17.50;99.90;;;;;;5025542;28;20053;-49
2022/09/12 00:55:54;;;;;;;2.25;1.30;;;17.60;99.90;;;;;;5017463;28;20034;-48
2022/09/12 00:58:28;;;;;;;1.98;1.10;;;17.60;99.90;;;;;;5030785;28;20439;-48
2022/09/12 01:00:55;;;;;;;5.05;1.25;;;17.60;99.90;;;;;;5024096;28;20033;-49
2022/09/12 01:03:22;;;;;;;1.67;1.20;;;17.50;99.90;;;;;;5015999;28;20110;-48
2022/09/12 01:06:09;;;;;;;2.17;1.10;;;17.50;99.90;;;;;;5020343;28;20025;-48
2022/09/12 01:08:39;;;;;;;2.25;1.08;;;17.50;99.90;;;;;;5012233;28;20041;-48
2022/09/12 01:11:07;;;;;;;2.00;1.20;;;17.50;99.90;;;;;;5020528;28;20084;-49
2022/09/12 01:13:36;;;;;;;5.03;1.15;;;17.60;99.90;;;;;;5007836;28;20050;-48
2022/09/12 01:16:04;;;;;;;4.72;1.25;;;17.60;99.90;;;;;;5011366;28;20048;-48
2022/09/12 01:18:59;;;;;;;1.05;0.90;;;17.60;99.90;;;;;;5011078;28;20042;-48
2022/09/12 01:22:01;;;;;;;3.10;1.00;;;17.60;99.90;;;;;;5011561;28;20034;-48
2022/09/12 01:24:39;;;;;;;5.90;1.63;;;17.40;99.90;;;;;;5070939;28;20029;-48
2022/09/12 01:27:31;;;;;;;8.60;2.53;;;17.40;99.90;;;;;;5070476;28;20032;-48
2022/09/12 01:30:04;;;;;;;2.17;1.48;;;17.20;99.90;;;;;;5070740;28;20029;-48
2022/09/12 01:33:07;;;;;;;2.47;1.27;;;17.30;99.90;;;;;;5071398;28;20106;-48
2022/09/12 01:36:00;;;;;;;3.95;1.70;;;17.30;99.90;;;;;;5067590;28;20067;-48
2022/09/12 01:38:42;;;;;;;3.45;1.52;;;17.30;99.90;;;;;;5070717;28;20488;-48
2022/09/12 01:41:20;;;;;;;5.45;1.55;;;17.30;99.90;;;;;;5070703;28;20035;-49
2022/09/12 01:43:58;;;;;;;2.90;1.63;;;17.20;99.90;;;;;;5078441;28;20046;-48
2022/09/12 01:46:37;;;;;;;1.95;1.58;;;17.30;99.90;;;;;;5113436;28;20479;-48
2022/09/12 01:49:15;;;;;;;3.72;1.63;;;17.40;99.90;;;;;;5113086;28;20020;-48
2022/09/12 01:51:51;;;;;;;3.65;1.30;;;17.20;99.90;;;;;;5067312;28;20039;-48
2022/09/12 01:54:38;;;;;;;1.13;1.00;;;17.30;99.90;;;;;;5113153;28;20088;-49
2022/09/12 01:57:12;;;;;;;7.07;1.20;;;17.30;99.90;;;;;;5058633;28;20035;-48
2022/09/12 01:59:44;;;;;;;3.42;1.10;;;17.30;99.90;;;;;;5114000;28;20028;-49
2022/09/12 02:02:41;;;;;;;2.63;1.40;;;17.20;99.90;;;;;;5113090;28;20474;-49
2022/09/12 02:05:15;;;;;;;1.38;1.20;;;17.20;99.90;;;;;;5112960;28;20110;-49
2022/09/12 02:07:53;;;;;;;2.83;1.10;;;17.20;99.90;;;;;;5113050;28;20027;-49
2022/09/12 02:10:25;;;;;;;3.28;1.00;;;17.20;99.90;;;;;;5109920;28;20457;-49
2022/09/12 02:13:07;;;;;;;2.60;0.98;;;17.20;99.90;;;;;;5112830;28;20445;-48
2022/09/12 02:15:37;;;;;;;2.67;0.95;;;17.20;99.90;;;;;;5110010;28;20062;-48
2022/09/12 02:18:05;;;;;;;2.72;0.90;;;17.10;99.90;;;;;;5108524;28;20043;-48
2022/09/12 02:20:37;;;;;;;3.00;0.77;;;17.10;99.90;;;;;;5117032;28;20070;-48
2022/09/12 02:23:07;;;;;;;;;;;17.00;99.90;;;;;;5117120;28;20043;-48
2022/09/12 02:25:36;;;;;;;3.92;1.17;;;17.00;99.90;;;;;;5117194;28;19953;-48
2022/09/12 02:28:18;;;;;;;2.95;1.08;;;17.00;99.90;;;;;;5098403;28;20475;-48
2022/09/12 02:31:04;;;;;;;1.65;0.82;;;17.00;99.90;;;;;;5109027;28;20027;-48
2022/09/12 02:33:47;;;;;;;2.25;0.80;;;16.90;99.90;;;;;;5097711;28;20458;-48
2022/09/12 02:36:33;;;;;;;4.28;1.20;;;16.90;99.90;;;;;;5116522;28;20058;-48
2022/09/12 02:38:59;;;;;;;2.70;0.95;;;16.80;99.90;;;;;;5093557;28;20490;-48
2022/09/12 02:41:25;;;;;;;2.85;0.95;;;16.70;99.90;;;;;;5068367;28;20040;-49
2022/09/12 02:43:53;;;;;;;1.63;1.00;;;16.70;99.90;;;;;;5112750;28;20093;-49
2022/09/12 02:46:32;;;;;;;2.35;0.70;;;16.80;99.90;;;;;;5081501;28;20043;-48
2022/09/12 02:48:58;;;;;;;1.98;0.80;;;16.80;99.90;;;;;;5116511;28;20051;-49
2022/09/12 02:51:24;;;;;;;1.83;0.63;;;16.80;99.90;;;;;;5116399;28;20074;-48
2022/09/12 02:53:50;;;;;;;3.20;0.90;;;16.70;99.90;;;;;;5116417;28;20059;-48
2022/09/12 02:56:23;;;;;;;2.58;1.17;;;16.70;99.90;;;;;;5080620;28;20040;-48
2022/09/12 02:58:50;;;;;;;1.90;1.00;;;16.60;99.90;;;;;;5116503;28;20023;-49
2022/09/12 03:01:16;;;;;;;1.33;0.80;;;16.50;99.90;;;;;;5062735;28;20431;-48
2022/09/12 03:04:17;;;;;;;7.88;1.20;;;16.40;99.90;;;;;;5060820;28;20148;-48
2022/09/12 03:07:08;;;;;;;2.13;0.85;;;16.40;99.90;;;;;;4958191;28;20043;-48
2022/09/12 03:09:50;;;;;;;1.15;0.82;;;16.50;99.90;;;;;;4962326;28;20047;-49
2022/09/12 03:12:31;;;;;;;1.05;0.82;;;16.50;99.90;;;;;;4973335;28;20046;-48
2022/09/12 03:15:15;;;;;;;4.57;1.17;;;16.50;99.90;;;;;;4985914;28;20143;-48
2022/09/12 03:18:00;;;;;;;3.50;1.00;;;16.50;99.90;;;;;;4977341;28;20046;-48
2022/09/12 03:20:43;;;;;;;2.05;0.65;;;16.50;99.90;;;;;;4975440;28;20043;-49
2022/09/12 03:23:28;;;;;;;1.35;0.98;;;16.50;99.90;;;;;;4983060;28;20514;-48
2022/09/12 03:26:07;;;;;;;2.83;1.20;;;16.40;99.90;;;;;;4983699;28;20027;-48
2022/09/12 03:28:35;;;;;;;3.50;0.90;;;16.40;99.90;;;;;;4980319;28;20367;-49
2022/09/12 03:31:13;;;;;;;1.88;1.10;;;16.40;99.90;;;;;;4979182;28;20034;-48
2022/09/12 03:33:38;;;;;;;1.83;1.63;;;16.40;99.90;;;;;;4984282;28;20540;-48
2022/09/12 03:36:04;;;;;;;2.20;1.30;;;16.40;99.90;;;;;;4982758;28;20030;-48
2022/09/12 03:38:30;;;;;;;2.85;1.17;;;16.40;99.90;;;;;;4951165;28;20506;-48
2022/09/12 03:40:56;;;;;;;4.68;0.90;;;16.40;99.90;;;;;;4989440;28;20052;-48
2022/09/12 03:43:21;;;;;;;2.50;1.13;;;16.40;99.90;;;;;;5063413;28;20040;-48
2022/09/12 03:45:53;;;;;;;1.60;1.00;;;16.40;99.90;;;;;;5099466;28;20035;-48
2022/09/12 03:48:18;;;;;;;1.92;0.90;;;16.40;99.90;;;;;;5115946;28;20463;-48
2022/09/12 03:50:44;;;;;;;2.70;1.08;;;16.40;99.90;;;;;;5062844;28;20034;-49
2022/09/12 03:53:10;;;;;;;2.47;1.40;;;16.30;99.90;;;;;;5115304;28;20467;-50
2022/09/12 03:55:38;;;;;;;4.53;1.30;;;16.30;99.90;;;;;;5115633;28;20047;-48
2022/09/12 03:58:04;;;;;;;3.20;1.10;;;16.30;99.90;;;;;;5111421;28;20031;-48
2022/09/12 04:00:29;;;;;;;1.92;0.82;;;16.30;99.90;;;;;;5114873;28;20023;-49
2022/09/12 04:02:56;;;;;;;2.47;1.15;;;16.20;99.90;;;;;;5115921;28;20064;-48
2022/09/12 04:05:23;;;;;;;3.53;1.10;;;16.20;99.90;;;;;;5059447;28;20480;-48
2022/09/12 04:07:49;;;;;;;3.28;1.20;;;16.10;99.90;;;;;;5111844;28;20039;-48
2022/09/12 04:10:15;;;;;;;1.67;1.15;;;16.10;99.90;;;;;;5079210;28;20035;-48
2022/09/12 04:12:40;;;;;;;1.80;1.20;;;16.10;99.90;;;;;;5045889;27;20075;-48
2022/09/12 04:15:07;;;;;;;3.60;1.80;;;16.10;99.90;;;;;;5070733;27;20044;-48
2022/09/12 04:17:33;;;;;;;2.88;1.30;;;16.00;99.90;;;;;;5038899;27;20043;-48
2022/09/12 04:19:59;;;;;;;6.68;1.55;;;16.10;99.90;;;;;;5125525;27;20030;-48
2022/09/12 04:22:25;;;;;;;3.42;1.27;;;16.00;99.90;;;;;;5124271;27;20035;-50
2022/09/12 04:24:51;;;;;;;1.63;1.27;;;16.00;99.90;;;;;;5057966;28;20086;-49
2022/09/12 04:27:17;;;;;;;2.20;1.25;;;16.00;99.90;;;;;;5086314;28;20044;-48
2022/09/12 04:29:43;;;;;;;3.40;1.27;;;16.10;99.90;;;;;;5077705;28;20068;-49
2022/09/12 04:32:09;;;;;;;3.35;1.25;;;16.00;99.90;;;;;;5022222;28;20129;-48
2022/09/12 04:34:34;;;;;;;3.65;1.48;;;16.00;99.90;;;;;;5055242;28;20040;-48
2022/09/12 04:37:00;;;;;;;3.05;1.20;;;16.10;99.90;;;;;;5085229;28;20589;-49
2022/09/12 04:39:26;;;;;;;4.10;1.30;;;16.10;99.90;;;;;;5041378;28;20041;-49
2022/09/12 04:41:52;;;;;;;1.95;1.30;;;16.20;99.90;;;;;;5049141;28;20067;-49
2022/09/12 04:44:17;;;;;;;2.30;1.35;;;16.20;99.90;;;;;;5038291;28;20053;-48
2022/09/12 04:46:45;;;;;;;1.75;1.60;;;16.20;99.90;;;;;;5085838;28;20044;-49
2022/09/12 04:49:13;;;;;;;1.60;1.20;;;16.20;99.90;;;;;;5078464;28;20024;-48
2022/09/12 04:51:40;;;;;;;2.00;1.30;;;16.20;99.90;;;;;;5024972;28;20044;-48
2022/09/12 04:54:17;;;;;;;2.15;1.25;;;16.20;99.90;;;;;;5082497;28;20036;-49
2022/09/12 04:56:47;;;;;;;2.95;1.42;;;16.30;99.90;;;;;;5118719;27;20047;-48
2022/09/12 04:59:14;;;;;;;3.13;1.55;;;16.40;99.90;;;;;;5128248;27;20099;-48
2022/09/12 05:01:41;;;;;;;1.95;1.63;;;16.30;99.90;;;;;;5128323;27;20036;-48
2022/09/12 05:04:09;;;;;;;2.33;1.25;;;16.30;99.90;;;;;;5124429;27;20075;-48
2022/09/12 05:06:37;;;;;;;2.17;1.50;;;16.30;99.90;;;;;;5124563;27;20058;-48
2022/09/12 05:09:05;;;;;;;3.42;1.35;;;16.30;99.90;;;;;;5113660;27;20028;-48
2022/09/12 05:11:36;;;;;;;4.00;1.60;;;16.40;99.90;;;;;;5122247;27;20043;-48
2022/09/12 05:14:02;;;;;;;2.83;1.30;;;16.40;99.90;;;;;;5114244;28;20044;-48
2022/09/12 05:16:30;;;;;;;4.60;1.38;;;16.40;99.90;;;;;;5113980;28;20034;-49
2022/09/12 05:18:57;;;;;;;2.42;1.38;;;16.50;99.90;;;;;;5061180;28;20075;-49
2022/09/12 05:21:24;;;;;;;1.52;1.08;;;16.40;99.90;;;;;;5113863;28;20107;-48
2022/09/12 05:23:51;;;;;;;2.95;1.70;;;16.50;99.90;;;;;;5113392;28;20031;-49
2022/09/12 05:26:19;;;;;;;1.58;1.20;;;16.50;99.90;;;;;;5095113;28;20469;-48
2022/09/12 05:28:47;;;;;;;1.90;1.25;;;16.50;99.90;;;;;;5114275;28;20118;-48
2022/09/12 05:31:15;;;;;;;5.30;1.50;;;16.50;99.90;;;;;;5113530;28;20375;-48
2022/09/12 05:33:44;;;;;;;4.60;1.45;;;16.60;99.90;;;;;;5070456;28;20036;-49
2022/09/12 05:36:12;;;;;;;3.15;1.50;;;16.60;99.90;;;;;;5065910;28;20040;-49
2022/09/12 05:38:38;;;;;;;2.88;1.33;;;16.60;99.90;;;;;;5067964;28;20040;-49
2022/09/12 05:41:05;;;;;;;5.70;1.42;;;16.70;99.90;;;;;;5071060;28;20036;-49
2022/09/12 05:43:33;;;;;;;8.25;2.10;;;16.70;99.90;;;;;;5070202;28;20524;-48
2022/09/12 05:46:09;;;;;;;3.95;1.48;;;16.80;99.90;;;;;;5053966;28;20064;-49
2022/09/12 05:48:36;;;;;;;2.15;1.63;;;16.80;99.90;;;;;;5066895;28;20039;-48
2022/09/12 05:51:05;;;;;;;2.20;1.50;;;17.00;99.90;;;;;;5046114;28;20032;-49
2022/09/12 05:53:32;;;;;;;4.88;1.92;;;17.00;99.90;;;;;;5069680;28;20086;-48
2022/09/12 05:56:18;;;;;;;3.00;1.70;;;17.10;99.90;;;;;;5070495;28;20388;-48
2022/09/12 05:58:47;;;;;;;6.25;2.08;;;17.20;99.90;;;;;;5062245;28;20037;-48
2022/09/12 06:01:16;;;;;;;5.15;2.00;;;17.20;99.90;;;;;;5045342;28;20043;-49
2022/09/12 06:03:44;;;;;;;4.80;1.85;;;17.20;99.90;;;;;;5050725;28;20090;-49
2022/09/12 06:06:12;;;;;;;4.15;2.05;;;17.40;99.90;;;;;;5094096;28;20035;-48
2022/09/12 06:08:40;;;;;;;5.75;2.00;;;17.40;99.90;;;;;;5111056;28;20032;-50
2022/09/12 06:11:07;;;;;;;3.78;1.73;;;17.50;99.90;;;;;;5110823;28;20024;-48
2022/09/12 06:13:41;;;;;;;2.80;1.90;;;17.40;99.90;;;;;;5069903;28;20119;-48
2022/09/12 06:16:13;;;;;;;3.03;1.90;;;17.60;99.90;;;;;;5052205;28;20056;-48
2022/09/12 06:18:42;;;;;;;3.47;1.77;;;17.80;99.90;;;;;;5068753;28;20041;-49
2022/09/12 06:21:10;;;;;;;2.17;1.70;;;17.80;99.90;;;;;;5070475;28;20093;-50
2022/09/12 06:23:38;;;;;;;2.00;1.80;;;17.90;99.90;;;;;;5069884;28;20059;-48
2022/09/12 06:26:05;;;;;;;2.85;1.77;;;18.10;99.90;;;;;;5070209;28;20074;-48
2022/09/12 06:28:33;;;;;;;4.03;1.40;;;18.30;99.90;;;;;;5065738;28;20047;-48
2022/09/12 06:31:10;;;;;;;3.95;1.73;;;18.30;99.90;;;;;;5036911;28;20041;-49
2022/09/12 06:33:38;;;;;;;2.53;2.05;;;18.30;99.90;;;;;;5069131;28;20053;-50
2022/09/12 06:36:15;;;;;;;3.22;2.38;;;18.50;99.90;;;;;;5070594;28;20146;-49
2022/09/12 06:38:42;;;;;;;4.88;2.35;;;18.80;99.90;;;;;;5069998;28;20036;-49
2022/09/12 06:41:11;;;;;;;3.40;1.73;;;19.20;99.90;;;;;;5036951;28;20074;-49
2022/09/12 06:43:38;;;;;;;2.78;2.47;;;19.20;99.90;;;;;;5075416;28;20051;-49
2022/09/12 06:46:04;;;;;;;3.40;2.50;;;19.00;99.90;;;;;;5112123;28;20028;-49
2022/09/12 06:48:30;;;;;;;4.80;2.95;;;19.20;99.90;;;;;;5092836;28;20043;-49
2022/09/12 06:51:10;;;;;;;3.38;2.55;;;19.30;99.90;;;;;;5106440;28;20046;-49
2022/09/12 06:53:36;;;;;;;5.00;2.45;;;19.30;99.90;;;;;;5101394;28;20038;-49
2022/09/12 06:56:14;;;;;;;6.00;2.58;;;19.30;99.90;;;;;;5111238;28;20088;-49
2022/09/12 06:58:41;;;;;;;4.15;2.67;;;19.20;99.90;;;;;;5112639;28;20024;-49
2022/09/12 07:01:14;;;;;;;4.20;2.50;;;19.00;99.90;;;;;;5112472;28;20070;-49
2022/09/12 07:03:40;;;;;;;7.28;3.00;;;19.10;99.90;;;;;;5112619;28;20036;-50
2022/09/12 07:06:11;;;;;;;5.72;2.58;;;19.30;99.90;;;;;;5114224;28;20386;-50
2022/09/12 07:08:38;;;;;;;6.05;2.72;;;19.30;99.90;;;;;;5116461;27;20043;-53
2022/09/12 07:11:11;;;;;;;4.30;2.80;;;19.40;99.90;;;;;;5116460;28;21033;-50
2022/09/12 07:13:39;;;;;;;3.72;2.65;;;19.30;99.90;;;;;;5140704;27;20196;-50
2022/09/12 07:16:05;;;;;;;3.15;2.78;;;19.30;99.90;;;;;;5145353;27;20128;-50
2022/09/12 07:18:33;;;;;;;3.70;2.78;;;19.30;99.90;;;;;;5146908;27;20486;-50
2022/09/12 07:21:03;;;;;;;4.82;2.90;;;19.30;99.90;;;;;;5147388;27;20023;-49
2022/09/12 07:23:29;;;;;;;4.95;3.00;;;19.50;99.90;;;;;;5147232;27;20035;-49
2022/09/12 07:25:56;;;;;;;2.88;1.77;;;19.80;99.90;;;;;;5147069;27;20031;-49
2022/09/12 07:28:27;;;;;;;3.72;3.30;;;19.80;99.90;;;;;;5147126;27;20030;-51
2022/09/12 07:30:54;;;;;;;5.28;2.85;;;20.10;99.90;;;;;;5085487;28;20044;-49
2022/09/12 07:33:26;;;;;;;3.35;2.47;;;20.30;99.90;;;;;;5090093;28;20527;-50
2022/09/12 07:35:55;;;;;;;6.50;3.10;;;20.50;99.90;;;;;;5061766;28;20040;-49
2022/09/12 07:38:22;;;;;;;2.75;2.40;;;20.60;99.90;;;;;;5047667;28;20044;-50
2022/09/12 07:40:49;;;;;;;3.15;2.53;;;20.50;99.90;;;;;;5066210;28;20037;-50
2022/09/12 07:43:14;;;;;;;4.32;1.75;;;20.80;99.90;;;;;;5050351;28;20504;-51
2022/09/12 07:45:41;;;;;;;5.25;2.70;;;20.80;99.90;;;;;;5040013;28;20045;-50
2022/09/12 07:48:09;;;;;;;5.13;2.63;;;21.10;99.90;;;;;;5050206;28;20099;-50
2022/09/12 07:50:35;;;;;;;7.75;3.38;;;20.90;99.90;;;;;;5045787;28;20515;-50
2022/09/12 07:53:03;;;;;;;2.80;2.25;;;21.10;99.90;;;;;;5048805;28;20025;-50
2022/09/12 07:55:29;;;;;;;4.53;2.45;;;21.50;99.90;;;;;;5047913;28;20124;-49
2022/09/12 07:57:55;;;;;;;6.70;2.80;;;21.70;99.90;;;;;;5035882;28;20163;-50
2022/09/12 08:00:21;;;;;;;5.05;3.17;;;21.70;99.90;;;;;;5029968;28;20594;-51
2022/09/12 08:02:51;;;;;;;5.10;2.90;;;21.80;99.90;;;;;;5036874;28;20430;-50
2022/09/12 08:05:18;;;;;;;4.30;2.63;;;21.40;99.90;;;;;;5048377;28;20657;-49
2022/09/12 08:07:43;;;;;;;4.50;3.10;;;21.70;99.90;;;;;;5077834;28;20044;-49
2022/09/12 08:10:09;;;;;;;4.25;2.65;;;21.90;99.90;;;;;;5094367;28;20096;-49
2022/09/12 08:12:35;;;;;;;4.60;2.63;;;21.50;99.90;;;;;;5111139;28;20052;-50
2022/09/12 08:15:01;;;;;;;3.55;2.80;;;21.60;99.90;;;;;;5109205;28;20148;-50
2022/09/12 08:17:28;;;;;;;4.35;2.50;;;21.50;99.90;;;;;;5077466;28;20547;-48
2022/09/12 08:19:55;;;;;;;4.07;3.00;;;21.70;99.90;;;;;;5115101;27;20088;-52
2022/09/12 08:22:21;;;;;;;3.53;2.72;;;21.90;99.90;;;;;;5137979;27;20027;-48
2022/09/12 08:24:47;;;;;;;3.53;2.30;;;22.10;99.90;;;;;;5135517;27;20381;-51
2022/09/12 08:27:14;;;;;;;5.00;3.35;;;21.80;99.90;;;;;;5112545;27;20554;-51
2022/09/12 08:29:40;;;;;;;3.83;2.88;;;21.30;99.90;;;;;;5088681;27;20031;-52
2022/09/12 08:32:06;;;;;;;3.97;2.70;;;21.60;99.90;;;;;;5048138;27;20043;-50
2022/09/12 08:34:32;;;;;;;4.95;3.22;;;21.80;99.90;;;;;;5144877;27;20030;-51
2022/09/12 08:36:58;;;;;;;5.00;2.60;;;21.70;99.90;;;;;;5151612;27;20437;-51
2022/09/12 08:39:23;;;;;;;2.90;2.50;;;21.60;99.90;;;;;;5146306;27;20109;-53
2022/09/12 08:42:04;;;;;;;4.35;2.40;;;22.10;99.90;;;;;;5142553;27;20031;-50
2022/09/12 08:44:45;;;;;;;3.53;2.28;;;22.60;99.90;;;;;;5117053;27;20524;-51
2022/09/12 08:47:30;;;;;;;5.70;2.80;;;22.20;99.90;;;;;;5109813;27;20058;-49
2022/09/12 08:50:00;;;;;;;5.28;2.88;;;22.30;99.90;;;;;;5134553;27;20125;-51
2022/09/12 08:52:49;;;;;;;3.03;2.50;;;22.60;99.90;;;;;;5133706;27;20086;-50
2022/09/12 08:55:33;;;;;;;3.38;2.40;;;22.50;99.90;;;;;;5140074;27;20033;-49
2022/09/12 08:58:01;;;;;;;2.88;2.30;;;22.50;99.90;;;;;;5139564;27;20034;-51
2022/09/12 09:01:20;;;;;;;2.40;2.17;;;22.40;99.90;;;;;;5144530;27;20584;-51
2022/09/12 09:04:08;;;;;;;3.50;2.47;;;23.30;99.90;;;;;;5049786;28;20523;-49
2022/09/12 09:07:03;;;;;;;4.28;2.33;;;23.10;99.90;;;;;;4987699;28;20073;-49
2022/09/12 09:10:15;;;;;;;5.43;2.28;;;23.20;99.90;;;;;;4933223;29;20047;-51
2022/09/12 09:12:59;;;;;;;3.08;2.28;;;23.70;99.90;;;;;;4897738;29;20048;-51
2022/09/12 09:15:39;;;;;;;4.88;2.20;;;23.50;99.90;;;;;;4899902;29;20157;-51
2022/09/12 09:18:19;;;;;;;2.88;1.92;;;23.60;99.90;;;;;;4895246;29;20044;-49
2022/09/12 09:20:48;;;;;;;2.20;1.67;;;23.50;99.90;;;;;;4894526;29;20467;-51
2022/09/12 09:23:27;;;;;;;4.43;2.30;;;23.80;99.90;;;;;;4894723;29;20044;-49
2022/09/12 09:25:59;;;;;;;5.05;2.65;;;24.10;99.90;;;;;;4894380;29;20096;-50
2022/09/12 09:28:30;;;;;;;5.90;2.42;;;23.60;99.90;;;;;;4894151;29;20049;-49
2022/09/12 09:30:56;;;;;;;2.87;2.13;;;23.70;99.90;;;;;;4894403;29;20045;-50
2022/09/12 09:33:27;;;;;;;3.95;1.95;;;23.70;99.90;;;;;;4895895;29;20036;-49
2022/09/12 09:36:02;;;;;;;3.90;2.35;;;23.20;99.90;;;;;;4894622;29;20072;-49
2022/09/12 09:38:54;;;;;;;3.35;2.38;;;23.20;99.90;;;;;;4914113;28;20046;-49
2022/09/12 09:41:29;;;;;;;4.30;2.63;;;23.70;99.90;;;;;;4945941;28;20035;-51
2022/09/12 09:43:57;;;;;;;2.40;1.85;;;24.10;99.90;;;;;;4988792;28;20303;-49
2022/09/12 09:46:23;;;;;;;4.78;1.67;;;24.00;99.90;;;;;;5066714;27;20580;-51
2022/09/12 09:48:49;;;;;;;2.75;2.30;;;24.30;99.90;;;;;;5138536;27;20470;-51
2022/09/12 09:51:32;;;;;;;3.30;2.28;;;24.20;99.90;;;;;;5106700;27;20489;-51
2022/09/12 09:54:27;;;;;;;4.45;1.92;;;24.50;99.90;;;;;;5087381;28;20046;-50
2022/09/12 09:56:54;;;;;;;3.45;2.28;;;24.70;99.90;;;;;;5089061;28;20566;-50
2022/09/12 09:59:31;;;;;;;2.13;1.90;;;24.40;99.90;;;;;;5089166;28;20059;-49
2022/09/12 10:02:15;;;;;;;3.05;2.10;;;24.70;99.90;;;;;;5072946;28;20040;-49
2022/09/12 10:04:54;;;;;;;4.97;2.58;;;24.50;99.90;;;;;;5087098;28;20430;-50
2022/09/12 10:07:21;;;;;;;3.90;2.35;;;24.20;99.90;;;;;;5087789;28;20105;-51
2022/09/12 10:10:17;;;;;;;3.00;2.05;;;24.20;99.90;;;;;;5077677;28;20040;-49
2022/09/12 10:12:43;;;;;;;8.32;2.17;;;24.40;99.90;;;;;;5075268;28;20535;-49
2022/09/12 10:15:29;;;;;;;2.60;2.00;;;25.00;99.90;;;;;;5077440;28;20059;-50
2022/09/12 10:17:55;;;;;;;4.53;2.10;;;25.30;99.90;;;;;;5070277;28;20041;-49
2022/09/12 10:20:38;;;;;;;10.88;3.22;;;25.80;99.90;;;;;;5077623;28;20415;-50
2022/09/12 10:23:16;;;;;;;3.28;1.77;;;;;;;;;;5079776;28;20045;-50
2022/09/12 10:25:46;;;;;;;3.13;2.10;;;;;;;;;;5125815;27;20035;-49
2022/09/12 10:28:25;;;;;;;2.78;2.05;;;26.10;99.90;;;;;;5133059;27;20124;-49
2022/09/12 10:30:54;;;;;;;4.47;2.20;;;;;;;;;;5135704;27;20030;-50
2022/09/12 10:33:24;;;;;;;3.00;2.00;;;26.10;99.90;;;;;;5105819;28;20050;-51
2022/09/12 10:35:52;;;;;;;3.80;2.50;;;25.50;99.90;;;;;;5149615;27;20442;-49
2022/09/12 10:38:27;;;;;;;3.83;2.45;;;25.30;99.90;;;;;;5138998;27;20023;-51
2022/09/12 10:41:02;;;;;;;2.20;2.00;;;25.20;99.90;;;;;;5137699;27;20038;-49
2022/09/12 10:43:41;;;;;;;2.90;1.98;;;25.50;99.90;;;;;;5089705;27;20394;-49
2022/09/12 10:46:20;;;;;;;5.07;2.40;;;25.30;99.90;;;;;;5138717;27;20035;-51
2022/09/12 10:48:48;;;;;;;2.75;2.03;;;24.90;99.90;;;;;;5112083;27;20031;-50
2022/09/12 10:51:22;;;;;;;2.83;2.17;;;24.60;99.90;;;;;;5140313;27;20043;-50
2022/09/12 10:54:00;;;;;;;2.88;2.28;;;25.10;99.90;;;;;;5139139;27;20518;-50
2022/09/12 10:56:31;;;;;;;2.60;1.88;;;25.50;99.90;;;;;;5145817;27;20031;-49
2022/09/12 10:59:30;;;;;;;3.03;2.22;;;25.60;99.90;;;;;;5143214;27;20027;-49
2022/09/12 11:02:00;;;;;;;3.20;2.33;;;25.40;99.90;;;;;;5103519;27;20087;-51
2022/09/12 11:04:59;;;;;;;2.95;1.90;;;25.40;99.90;;;;;;5119646;27;20428;-51
2022/09/12 11:07:36;;;;;;;5.43;1.92;;;25.60;99.90;;;;;;5052259;28;20048;-51
2022/09/12 11:10:30;;;;;;;2.10;1.80;;;25.90;99.90;;;;;;5052095;28;20036;-51
2022/09/12 11:13:11;;;;;;;4.78;2.53;;;25.90;99.90;;;;;;5011911;28;20060;-49
2022/09/12 11:15:59;;;;;;;2.60;1.92;;;26.70;99.90;;;;;;5012252;28;20037;-52
2022/09/12 11:18:40;;;;;;;2.05;1.70;;;26.80;99.90;;;;;;5012278;28;20040;-51
2022/09/12 11:21:23;;;;;;;3.75;2.40;;;26.30;99.90;;;;;;4995613;28;20045;-51
2022/09/12 11:24:06;;;;;;;2.80;2.03;;;26.30;99.90;;;;;;5012830;28;20050;-52
2022/09/12 11:26:51;;;;;;;2.38;1.75;;;26.80;99.90;;;;;;5012119;28;20409;-52
2022/09/12 11:29:16;;;;;;;3.53;1.83;;;26.40;99.90;;;;;;5011650;28;20037;-51
2022/09/12 11:31:45;;;;;;;3.80;2.50;;;26.50;99.90;;;;;;5011175;28;20049;-51
2022/09/12 11:34:18;;;;;;;3.90;1.58;;;26.80;99.90;;;;;;5011785;28;20117;-52
2022/09/12 11:37:08;;;;;;;2.58;2.13;;;26.10;99.90;;;;;;5012700;28;20171;-51
2022/09/12 11:39:44;;;;;;;2.85;2.22;;;26.20;99.90;;;;;;5011849;28;20046;-50
2022/09/12 11:42:18;;;;;;;2.75;2.08;;;26.70;99.90;;;;;;5011588;28;20121;-52
2022/09/12 11:44:58;;;;;;;2.70;1.85;;;26.90;99.90;;;;;;5107417;27;20530;-50
2022/09/12 11:47:25;;;;;;;3.70;2.03;;;;;;;;;;5140994;27;20035;-52
2022/09/12 11:49:53;;;;;;;4.63;2.03;;;27.70;99.90;;;;;;5146038;27;20038;-51
2022/09/12 11:52:23;;;;;;;1.90;1.77;;;26.70;99.90;;;;;;5144773;27;20035;-50
2022/09/12 11:55:16;;;;;;;1.88;1.58;;;26.80;99.90;;;;;;5151731;27;20026;-52
2022/09/12 11:57:51;;;;;;;3.33;1.98;;;26.60;99.90;;;;;;5051055;28;20075;-52
2022/09/12 12:00:30;;;;;;;3.60;2.20;;;26.80;99.90;;;;;;5050853;28;20041;-50
2022/09/12 12:03:03;;;;;;;2.55;1.80;;;27.30;99.90;;;;;;5050728;28;20056;-52
2022/09/12 12:06:07;;;;;;;5.93;2.13;;;27.20;99.90;;;;;;5051672;28;20116;-52
2022/09/12 12:08:43;;;;;;;2.10;1.63;;;27.50;99.90;;;;;;5011727;28;20533;-52
2022/09/12 12:11:11;;;;;;;2.58;1.88;;;26.90;99.90;;;;;;5011314;28;20574;-52
2022/09/12 12:13:56;;;;;;;3.13;1.90;;;26.70;99.20;;;;;;4994582;28;20081;-49
2022/09/12 12:16:33;;;;;;;3.95;2.30;;;26.60;99.10;;;;;;4994810;28;20146;-52
2022/09/12 12:19:13;;;;;;;2.38;1.80;;;27.00;99.30;;;;;;5009777;28;20484;-50
2022/09/12 12:21:41;;;;;;;3.97;2.05;;;26.90;98.40;;;;;;5011542;28;20482;-50
2022/09/12 12:24:06;;;;;;;4.93;2.03;;;26.80;99.40;;;;;;5011158;28;20041;-51
2022/09/12 12:26:38;;;;;;;2.15;1.70;;;27.00;98.60;;;;;;5011616;28;20045;-51
2022/09/12 12:29:16;;;;;;;1.85;1.55;;;26.90;98.90;;;;;;5011024;28;20050;-50
2022/09/12 12:32:03;;;;;;;2.42;1.73;;;26.90;99.00;;;;;;5011242;28;20112;-52
2022/09/12 12:34:36;;;;;;;4.13;2.13;;;26.70;99.00;;;;;;5043410;28;20108;-51
2022/09/12 12:37:21;;;;;;;3.22;1.80;;;27.10;99.90;;;;;;5090844;28;20039;-50
2022/09/12 12:39:47;;;;;;;2.38;2.05;;;27.40;99.30;;;;;;5091281;28;20086;-51
2022/09/12 12:42:31;;;;;;;3.60;2.50;;;27.00;98.50;;;;;;5090473;28;20036;-50
2022/09/12 12:44:57;;;;;;;6.97;2.15;;;27.30;99.90;;;;;;5055282;28;20058;-50
2022/09/12 12:47:26;;;;;;;3.58;1.90;;;26.90;98.90;;;;;;5103195;28;20035;-50
2022/09/12 12:49:57;;;;;;;4.00;1.80;;;27.10;98.60;;;;;;5102434;28;20080;-51
2022/09/12 12:52:25;;;;;;;2.97;1.93;;;26.90;98.10;;;;;;5109154;28;20055;-52
2022/09/12 12:54:55;;;;;;;8.68;2.25;;;26.50;97.50;;;;;;5101915;28;20292;-50
2022/09/12 12:57:21;;;;;;;2.28;1.85;;;26.70;98.60;;;;;;5110686;28;20442;-51
2022/09/12 12:59:53;;;;;;;3.20;2.17;;;26.90;98.40;;;;;;5103310;28;20027;-52
2022/09/12 13:02:30;;;;;;;2.97;2.38;;;26.10;98.20;;;;;;5102966;28;20023;-51
2022/09/12 13:05:00;;;;;;;2.72;2.20;;;25.80;99.30;;;;;;5110120;28;20466;-51
2022/09/12 13:07:36;;;;;;;3.17;1.83;;;26.20;99.90;;;;;;5106509;28;20473;-51
2022/09/12 13:10:05;;;;;;;4.22;2.20;;;26.70;99.70;;;;;;5102934;28;20063;-51
2022/09/12 13:12:44;;;;;;;2.55;2.00;;;27.00;98.90;;;;;;5058291;28;20389;-51
2022/09/12 13:15:35;;;;;;;2.67;2.00;;;26.50;98.50;;;;;;5107200;28;20032;-50
2022/09/12 13:18:04;;;;;;;3.45;2.10;;;26.50;99.50;;;;;;5111500;28;20024;-52